Bezoek onze andere website:

Template documentation
and downloads

And another site


METAR rapporten vliegvelden

   
EBBR - Brussels International Airport, Belgium
Afstand tot: W 14 km
Gewijzigd: 10-12-2018 23:20
Licht bewolkt  
Licht bewolkt  
   Wind: Westen 9.3 km/h
Wind: Westen 9.3 km/h
Temperatuur: 4°C
Voelt als: 2°C
Dauwpunt: 2°C
Vochtigheid: 87%
Barometer: 1025 hPa
Bewolking: Licht bewolkt
Zicht: meer dan 10 km
Bewolking: Licht bewolkt 4500 ft
EBBR 102220Z 26005KT 9999 FEW045 04/02 Q1025 NOSIG
EBBE - Beauvechain (Bevekom), Belgium
Afstand tot: ZZO 17 km
Gewijzigd: 10-12-2018 23:25
Helder  
Helder  
   Wind: WZW 9.3 km/h
Wind: WZW 9.3 km/h
Temperatuur: 3°C
Voelt als: 1°C
Dauwpunt: 2°C
Vochtigheid: 93%
Barometer: 1026 hPa
Bewolking: Helder
Zicht: meer dan 10 km
Bewolking: Helder
EBBE 102225Z AUTO 25005KT 9999 NCD 03/02 Q1026 BLU
EBDT - Schaffen, Belgium
Afstand tot: ONO 29 km
Gewijzigd: 10-12-2018 23:25
Licht bewolkt  
Licht bewolkt  
   Wind: Westen 14.8 km/h
Wind: Westen 14.8 km/h
Temperatuur: 4°C
Voelt als: 1°C
Dauwpunt: 2°C
Vochtigheid: 87%
Barometer: 1025 hPa
Bewolking: Licht bewolkt
Zicht: meer dan 10 km
Bewolking: Licht bewolkt 3000 ft
EBDT 102225Z 26008KT 9999 FEW030 04/02 Q1025 BLU BLU
EBAW - Antwerp/Deurne, Belgium
Afstand tot: NNW 38 km
Gewijzigd: 10-12-2018 23:20
Licht bewolkt  
Licht bewolkt  
   Wind: Westen 9.3 km/h
Wind: Westen 9.3 km/h
Temperatuur: 4°C
Voelt als: 2°C
Dauwpunt: 2°C
Vochtigheid: 87%
Barometer: 1025 hPa
Bewolking: Licht bewolkt
Zicht: meer dan 10 km
Bewolking: Licht bewolkt 2500 ft
EBAW 102220Z 26005KT 9999 FEW025 04/02 Q1025 NOSIG
EBCI - Charleroi/Gosselies, Belgium
Afstand tot: ZZW 51 km
Gewijzigd: 10-12-2018 23:20
Grotendeels bewolkt  
Grotendeels bewolkt  
   Wind: Westen 5.6 km/h
Wind: Westen 5.6 km/h
Temperatuur: 4°C
Voelt als: 3°C
Dauwpunt: 3°C
Vochtigheid: 93%
Barometer: 1026 hPa
Bewolking: Grotendeels bewolkt
Zicht: meer dan 10 km
Bewolking: Gedeeltelijk bewolkt 2000 ft,
Grotendeels bewolkt 3200 ft
EBCI 102220Z 27003KT 240V300 9999 SCT020 BKN032 04/03 Q1026 NOSIG
EBLG - Bierset/Liege, Belgium
Afstand tot: OZO 60 km
Gewijzigd: 10-12-2018 23:20
Helder  
Helder  
   Wind: Westen 13 km/h
Wind: Westen 13 km/h
Temperatuur: 2°C
Voelt als: -2°C
Dauwpunt: 1°C
Vochtigheid: 93%
Barometer: 1025 hPa
Zicht: meer dan 10 km
Bewolking: Helder
EBLG 102220Z 26007KT CAVOK 02/01 Q1025 NOSIG

Script ontwikkeld door  Saratoga-weather.org Aangepast voor de template door  Weerstation Leuven

U vindt ons ook hier:

Het Weer Aktueel

WeatherCloud

Weather Underground